createdAt,value
2023-03-20T18:55:39.254Z,997.31
2023-03-20T18:56:42.015Z,997.27
2023-03-20T18:58:33.629Z,997.23
2023-03-20T18:59:32.858Z,997.20
2023-03-20T19:01:37.428Z,997.18
2023-03-20T19:02:37.321Z,997.23
2023-03-20T19:04:42.897Z,997.14
2023-03-20T19:05:42.597Z,997.12
2023-03-20T19:06:42.582Z,997.11
2023-03-20T19:07:42.611Z,997.12
2023-03-20T19:08:43.831Z,997.16
2023-03-20T19:09:42.401Z,997.13
2023-03-20T19:10:42.400Z,997.12
2023-03-20T19:11:42.369Z,997.13
2023-03-20T19:12:42.355Z,997.12
2023-03-20T19:13:42.335Z,997.13
2023-03-20T19:14:42.320Z,997.11
2023-03-20T19:15:42.346Z,997.14
2023-03-20T19:16:42.357Z,997.09
2023-03-20T19:17:42.278Z,997.14
2023-03-20T19:18:42.267Z,997.08
2023-03-20T19:19:42.248Z,997.13
2023-03-20T19:20:42.234Z,997.11
2023-03-20T19:21:42.256Z,997.08
2023-03-20T19:22:42.250Z,997.06
2023-03-20T19:23:42.196Z,997.11
2023-03-20T19:24:42.186Z,997.09
2023-03-20T19:25:42.174Z,997.09
2023-03-20T19:26:42.228Z,997.07
2023-03-20T19:27:42.129Z,997.13
2023-03-20T19:28:42.118Z,997.10
2023-03-20T19:29:42.101Z,997.09
2023-03-20T19:30:42.094Z,997.15
2023-03-20T19:31:42.148Z,997.14
2023-03-20T19:32:42.090Z,997.17
2023-03-20T19:33:42.043Z,997.13
2023-03-20T19:36:01.065Z,997.12
2023-03-20T19:36:42.014Z,997.12
2023-03-20T19:37:41.986Z,997.13
2023-03-20T19:38:41.971Z,997.14
2023-03-20T19:39:41.954Z,997.14
2023-03-20T19:40:43.330Z,997.15
2023-03-20T19:41:41.928Z,997.13
2023-03-20T19:43:00.814Z,997.17
2023-03-20T19:43:52.127Z,997.18
2023-03-20T19:44:41.884Z,997.17
2023-03-20T19:45:41.860Z,997.15
2023-03-20T19:46:42.512Z,997.15
2023-03-20T19:47:41.836Z,997.10
2023-03-20T19:48:50.068Z,997.10
2023-03-20T19:49:41.817Z,997.10
2023-03-20T19:50:43.760Z,997.09
2023-03-20T19:51:41.771Z,997.07
2023-03-20T19:52:41.752Z,997.04
2023-03-20T19:53:41.735Z,997.06
2023-03-20T19:54:52.801Z,997.04
2023-03-20T19:55:41.705Z,997.06
2023-03-20T19:56:41.689Z,997.10
2023-03-20T19:57:41.677Z,997.08
2023-03-20T19:58:41.921Z,997.12
2023-03-20T19:59:43.998Z,997.10
2023-03-20T20:00:59.013Z,997.10
2023-03-20T20:01:41.727Z,997.09
2023-03-20T20:02:41.660Z,997.12
2023-03-20T20:03:41.594Z,997.19
2023-03-20T20:04:41.570Z,997.13
2023-03-20T20:05:41.550Z,997.11
2023-03-20T20:06:41.972Z,997.13
2023-03-20T20:08:12.785Z,997.10
2023-03-20T20:08:48.512Z,997.11
2023-03-20T20:09:41.491Z,997.12
2023-03-20T20:10:41.487Z,997.14
2023-03-20T20:11:41.463Z,997.16
2023-03-20T20:12:41.449Z,997.14
2023-03-20T20:14:03.759Z,997.11
2023-03-20T20:14:41.416Z,997.16
2023-03-20T20:15:41.394Z,997.16
2023-03-20T20:16:41.404Z,997.16
2023-03-20T20:17:41.373Z,997.16
2023-03-20T20:18:41.349Z,997.16
2023-03-20T20:19:41.334Z,997.18
2023-03-20T20:21:22.192Z,997.14
2023-03-20T20:22:41.282Z,997.18
2023-03-20T20:23:41.276Z,997.21
2023-03-20T20:24:41.258Z,997.20
2023-03-20T20:25:41.241Z,997.22
2023-03-20T20:26:52.947Z,997.18
2023-03-20T20:27:41.890Z,997.18
2023-03-20T20:28:41.206Z,997.15
2023-03-20T20:29:41.188Z,997.16
2023-03-20T20:30:41.225Z,997.13
2023-03-20T20:31:41.182Z,997.14
2023-03-20T20:32:41.161Z,997.12
2023-03-20T20:33:42.061Z,997.13
2023-03-20T20:36:20.022Z,997.08
2023-03-20T20:37:32.315Z,997.09
2023-03-20T20:38:50.444Z,997.07
2023-03-20T20:39:41.059Z,997.08
2023-03-20T20:40:41.014Z,997.09
2023-03-20T20:41:40.995Z,997.06
2023-03-20T20:42:41.222Z,997.03
2023-03-20T20:44:11.893Z,997.04
2023-03-20T20:44:40.960Z,997.03
2023-03-20T20:45:41.188Z,996.96
2023-03-20T20:46:40.918Z,996.96
2023-03-20T20:47:40.907Z,996.98
2023-03-20T20:48:40.887Z,997.00
2023-03-20T20:49:40.880Z,996.93
2023-03-20T20:50:40.897Z,996.93
2023-03-20T20:51:40.840Z,996.97
2023-03-20T20:52:41.717Z,996.98
2023-03-20T20:53:40.816Z,997.00
2023-03-20T20:54:40.794Z,996.96
2023-03-20T20:55:41.254Z,997.01
2023-03-20T20:56:40.778Z,997.04
2023-03-20T20:57:40.759Z,997.04
2023-03-20T20:58:40.734Z,997.05
2023-03-20T20:59:40.722Z,997.04
2023-03-20T21:00:50.141Z,997.06
2023-03-20T21:01:40.831Z,997.08
2023-03-20T21:02:40.856Z,997.07
2023-03-20T21:03:40.658Z,997.13
2023-03-20T21:04:40.640Z,997.15
2023-03-20T21:05:40.674Z,997.15
2023-03-20T21:07:06.185Z,997.23
2023-03-20T21:07:40.596Z,997.25
2023-03-20T21:08:40.579Z,997.26
2023-03-20T21:09:40.571Z,997.26
2023-03-20T21:10:40.562Z,997.30
2023-03-20T21:11:40.533Z,997.30
2023-03-20T21:12:55.885Z,997.31
2023-03-20T21:13:40.507Z,997.30
2023-03-20T21:14:40.486Z,997.28
2023-03-20T21:15:41.191Z,997.27
2023-03-20T21:16:40.456Z,997.29
2023-03-20T21:17:50.463Z,997.25
2023-03-20T21:18:40.451Z,997.23
2023-03-20T21:19:40.417Z,997.23
2023-03-20T21:20:40.390Z,997.21
2023-03-20T21:21:40.386Z,997.20
2023-03-20T21:22:40.412Z,997.18
2023-03-20T21:23:40.893Z,997.21
2023-03-20T21:24:40.352Z,997.17
2023-03-20T21:25:42.156Z,997.16
2023-03-20T21:26:40.303Z,997.20
2023-03-20T21:27:40.288Z,997.18
2023-03-20T21:28:40.277Z,997.19
2023-03-20T21:29:40.261Z,997.17
2023-03-20T21:30:49.896Z,997.15
2023-03-20T21:31:40.365Z,997.15
2023-03-20T21:32:40.282Z,997.20
2023-03-20T21:33:40.210Z,997.18
2023-03-20T21:34:40.317Z,997.19
2023-03-20T21:35:42.013Z,997.16
2023-03-20T21:36:40.925Z,997.13
2023-03-20T21:39:09.930Z,997.09
2023-03-20T21:39:40.112Z,997.12
2023-03-20T21:40:40.125Z,997.10
2023-03-20T21:41:40.079Z,997.11
2023-03-20T21:42:40.074Z,997.10
2023-03-20T21:43:40.055Z,997.09
2023-03-20T21:45:34.433Z,997.07
2023-03-20T21:47:09.672Z,997.08
2023-03-20T21:48:24.702Z,997.12
2023-03-20T21:49:24.487Z,997.10
2023-03-20T21:51:11.467Z,997.11
2023-03-20T21:52:37.462Z,997.08
2023-03-20T21:53:24.697Z,997.07
2023-03-20T21:54:43.761Z,997.09
2023-03-20T21:57:21.190Z,997.11
2023-03-20T21:58:24.017Z,997.07
2023-03-20T21:59:22.822Z,997.06
2023-03-20T22:02:04.159Z,997.08
2023-03-20T22:02:43.267Z,997.07
2023-03-20T22:04:31.910Z,997.02
2023-03-20T22:05:22.177Z,997.06
2023-03-20T22:08:26.624Z,997.05
2023-03-20T22:09:39.057Z,997.07
2023-03-20T22:10:15.139Z,997.07
2023-03-20T22:11:31.585Z,997.07
2023-03-20T22:16:19.544Z,997.10
2023-03-20T22:19:43.464Z,997.08
2023-03-20T22:20:29.210Z,997.08
2023-03-20T22:21:29.700Z,997.11
2023-03-20T22:26:25.278Z,997.10
2023-03-20T22:28:22.450Z,997.05
2023-03-20T22:29:24.836Z,997.09
2023-03-20T22:30:31.014Z,997.02
2023-03-20T22:31:26.788Z,997.13
2023-03-20T22:32:20.868Z,997.05
2023-03-20T22:35:23.055Z,997.05
2023-03-20T22:36:21.567Z,997.05
2023-03-20T22:38:29.368Z,997.06
2023-03-20T22:39:17.335Z,997.01
2023-03-20T22:42:24.250Z,996.98
2023-03-20T22:43:31.863Z,996.97
2023-03-20T22:44:35.298Z,996.98
2023-03-20T22:44:59.229Z,996.99
2023-03-20T22:45:43.037Z,996.96
2023-03-20T22:46:45.663Z,996.93
2023-03-20T22:47:39.052Z,996.95
2023-03-20T22:48:39.033Z,996.96
2023-03-20T22:49:39.025Z,996.90
2023-03-20T22:50:39.195Z,996.94
2023-03-20T22:51:52.204Z,996.89
2023-03-20T22:52:48.624Z,996.86
2023-03-20T22:53:38.954Z,996.85
2023-03-20T22:54:38.952Z,996.84
2023-03-20T22:55:38.922Z,996.85
2023-03-20T22:56:38.909Z,996.87
2023-03-20T22:57:47.688Z,996.83
2023-03-20T22:58:38.883Z,996.82
2023-03-20T22:59:38.857Z,996.83
2023-03-20T23:00:39.189Z,996.86
2023-03-20T23:01:38.834Z,996.85
2023-03-20T23:02:38.813Z,996.91
2023-03-20T23:03:41.750Z,996.83
2023-03-20T23:04:38.863Z,996.81
2023-03-20T23:05:38.770Z,996.82
2023-03-20T23:06:38.746Z,996.78
2023-03-20T23:07:38.730Z,996.80
2023-03-20T23:08:50.390Z,996.75
2023-03-20T23:09:38.704Z,996.79
2023-03-20T23:10:39.043Z,996.77
2023-03-20T23:11:38.677Z,996.72
2023-03-20T23:12:38.651Z,996.75
2023-03-20T23:13:38.644Z,996.72
2023-03-20T23:14:45.690Z,996.73
2023-03-20T23:15:38.627Z,996.69
2023-03-20T23:16:38.635Z,996.66
2023-03-20T23:17:38.573Z,996.66
2023-03-20T23:18:38.564Z,996.67
2023-03-20T23:19:47.841Z,996.71
2023-03-20T23:20:38.696Z,996.69
2023-03-20T23:21:38.518Z,996.69
2023-03-20T23:22:38.497Z,996.69
2023-03-20T23:23:38.484Z,996.72
2023-03-20T23:24:38.465Z,996.78
2023-03-20T23:25:40.244Z,996.70
2023-03-20T23:26:38.449Z,996.69
2023-03-20T23:27:38.419Z,996.72
2023-03-20T23:28:38.402Z,996.72
2023-03-20T23:29:38.398Z,996.71
2023-03-20T23:30:46.665Z,996.69
2023-03-20T23:31:38.436Z,996.72
2023-03-20T23:32:38.343Z,996.71
2023-03-20T23:33:38.332Z,996.74
2023-03-20T23:34:38.313Z,996.73
2023-03-20T23:35:38.371Z,996.75
2023-03-20T23:36:38.342Z,996.71
2023-03-20T23:37:38.263Z,996.72
2023-03-20T23:38:38.245Z,996.78
2023-03-20T23:39:38.228Z,996.74
2023-03-20T23:40:38.586Z,996.74
2023-03-20T23:42:38.190Z,996.78
2023-03-20T23:43:38.165Z,996.75
2023-03-20T23:44:44.132Z,996.72
2023-03-20T23:45:38.353Z,996.72
2023-03-20T23:46:38.127Z,996.73
2023-03-20T23:47:44.894Z,996.71
2023-03-20T23:48:38.084Z,996.71
2023-03-20T23:49:38.105Z,996.73
2023-03-20T23:50:51.849Z,996.71
2023-03-20T23:51:38.040Z,996.73
2023-03-20T23:52:40.698Z,996.70
2023-03-20T23:53:38.023Z,996.67
2023-03-20T23:54:37.993Z,996.72
2023-03-20T23:55:38.388Z,996.67
2023-03-20T23:56:38.033Z,996.64
2023-03-20T23:57:37.947Z,996.64
2023-03-20T23:58:41.950Z,996.63
2023-03-20T23:59:37.925Z,996.58
